Time;durP1;ratioP1;P1;durP2;ratioP2;P2;SDS_P1;SDS_P2;PMS_P1;PMS_P2;Temp;Humidity;BMP_temperature;BMP_pressure;BME280_temperature;BME280_humidity;BME280_pressure;Samples;Min_cycle;Max_cycle;Signal;HPM_P1;HPM_P2
2021/01/16 00:00:26;;;;;;;18.90;13.10;;;13.00;2048.00;;;;;;5030190;28;20032;-51
2021/01/16 00:02:52;;;;;;;20.98;12.57;;;12.90;2022.40;;;;;;5030006;28;20029;-52
2021/01/16 00:05:19;;;;;;;21.43;13.40;;;13.10;2048.00;;;;;;5029931;28;20025;-51
2021/01/16 00:07:47;;;;;;;21.77;13.85;;;13.20;2073.60;;;;;;5029662;28;20034;-52
2021/01/16 00:10:15;;;;;;;63.47;43.42;;;13.30;2073.60;;;;;;5029841;28;20029;-53
2021/01/16 00:12:47;;;;;;;24.80;13.38;;;13.30;2099.20;;;;;;5029845;28;20026;-51
2021/01/16 00:15:13;;;;;;;102.73;47.23;;;13.20;2073.60;;;;;;5030142;28;20030;-50
2021/01/16 00:17:39;;;;;;;60.22;30.30;;;13.40;2073.60;;;;;;5029806;28;20033;-51
2021/01/16 00:20:05;;;;;;;35.20;20.02;;;13.30;2073.60;;;;;;5029507;28;20026;-54
2021/01/16 00:22:31;;;;;;;40.10;20.17;;;13.20;2073.60;;;;;;5030259;28;20115;-50
2021/01/16 00:24:58;;;;;;;26.87;16.50;;;13.30;2073.60;;;;;;5029570;28;20471;-59
2021/01/16 00:27:25;;;;;;;22.30;11.85;;;13.30;2099.20;;;;;;5029993;28;20037;-53
2021/01/16 00:29:51;;;;;;;51.10;26.27;;;13.40;2099.20;;;;;;5029935;28;20026;-54
2021/01/16 00:32:16;;;;;;;21.67;13.60;;;13.40;2099.20;;;;;;5029625;28;20033;-53
2021/01/16 00:34:42;;;;;;;77.73;37.30;;;13.30;2073.60;;;;;;5029831;28;20405;-55
2021/01/16 00:37:07;;;;;;;16.50;10.45;;;13.40;2073.60;;;;;;5029345;28;20033;-53
2021/01/16 00:39:33;;;;;;;25.53;14.33;;;13.40;2099.20;;;;;;5029844;28;20030;-51
2021/01/16 00:41:59;;;;;;;39.67;24.00;;;13.20;2099.20;;;;;;5029404;28;20451;-55
2021/01/16 00:44:24;;;;;;;23.80;12.37;;;13.40;2099.20;;;;;;5029873;28;20033;-54
2021/01/16 00:46:50;;;;;;;20.85;12.30;;;13.50;2124.80;;;;;;5032901;28;20357;-53
2021/01/16 00:49:16;;;;;;;29.37;16.17;;;13.50;2124.80;;;;;;5031657;28;20081;-54
2021/01/16 00:51:44;;;;;;;35.97;21.70;;;13.40;2099.20;;;;;;5033381;28;20025;-51
2021/01/16 00:54:09;;;;;;;25.70;12.83;;;13.40;2099.20;;;;;;5033139;28;20365;-60
2021/01/16 00:56:35;;;;;;;25.93;15.23;;;13.40;2124.80;;;;;;5033013;28;20040;-54
2021/01/16 00:59:01;;;;;;;24.30;13.83;;;13.50;2124.80;;;;;;5015225;28;20068;-55
2021/01/16 01:01:27;;;;;;;21.97;11.80;;;13.40;2099.20;;;;;;5033271;28;20511;-57
2021/01/16 01:03:52;;;;;;;20.50;13.73;;;13.50;2124.80;;;;;;5033677;28;20034;-57
2021/01/16 01:06:18;;;;;;;41.07;27.10;;;13.50;2124.80;;;;;;5033222;28;20076;-53
2021/01/16 01:08:44;;;;;;;24.47;14.60;;;13.50;2099.20;;;;;;5033344;28;20037;-51
2021/01/16 01:11:09;;;;;;;28.47;17.07;;;13.50;2099.20;;;;;;5033080;28;20375;-53
2021/01/16 01:13:35;;;;;;;27.70;14.40;;;13.50;2099.20;;;;;;5033533;28;20409;-54
2021/01/16 01:16:01;;;;;;;22.37;13.10;;;13.60;2124.80;;;;;;5033960;28;20025;-53
2021/01/16 01:18:27;;;;;;;20.07;13.17;;;13.70;2124.80;;;;;;5033579;28;20112;-51
2021/01/16 01:20:52;;;;;;;21.03;11.87;;;38.40;2150.40;;;;;;5033837;28;20084;-54
2021/01/16 01:23:18;;;;;;;18.67;11.73;;;38.50;2150.40;;;;;;5033423;28;20486;-53
2021/01/16 01:25:44;;;;;;;18.90;11.40;;;38.40;2150.40;;;;;;5033852;28;20033;-59
2021/01/16 01:28:09;;;;;;;20.97;12.40;;;38.50;2150.40;;;;;;5034308;28;20412;-51
2021/01/16 01:30:35;;;;;;;25.13;14.47;;;38.50;2150.40;;;;;;5032531;28;20517;-51
2021/01/16 01:33:01;;;;;;;18.10;12.73;;;38.40;2150.40;;;;;;5032260;28;20030;-53
2021/01/16 01:35:27;;;;;;;20.90;12.87;;;38.40;2150.40;;;;;;5032253;28;20025;-52
2021/01/16 01:37:56;;;;;;;18.37;12.00;;;38.40;2124.80;;;;;;5032413;28;20029;-55
2021/01/16 01:40:23;;;;;;;19.63;13.77;;;13.70;2124.80;;;;;;5032385;28;20064;-54
2021/01/16 01:42:50;;;;;;;26.30;13.67;;;13.70;2124.80;;;;;;5032224;28;20033;-55
2021/01/16 01:45:17;;;;;;;26.37;15.50;;;38.50;2150.40;;;;;;5031885;28;20459;-55
2021/01/16 01:47:45;;;;;;;25.80;13.33;;;38.60;2150.40;;;;;;5031629;28;20553;-53
2021/01/16 01:50:12;;;;;;;23.90;12.57;;;38.40;2150.40;;;;;;5031991;28;20033;-56
2021/01/16 01:52:40;;;;;;;21.10;11.93;;;38.50;2150.40;;;;;;5031777;28;20497;-55
2021/01/16 01:55:09;;;;;;;29.50;13.97;;;38.50;2150.40;;;;;;5031738;28;20021;-53
2021/01/16 01:57:43;;;;;;;31.00;18.00;;;38.60;2176.00;;;;;;5030620;28;20095;-54
2021/01/16 02:00:12;;;;;;;34.80;18.07;;;38.70;2201.60;;;;;;5031833;28;20352;-52
2021/01/16 02:02:40;;;;;;;35.97;19.53;;;38.70;2201.60;;;;;;5031476;28;20030;-51
2021/01/16 02:05:07;;;;;;;28.90;17.07;;;38.60;2176.00;;;;;;5031842;28;20030;-53
2021/01/16 02:07:40;;;;;;;41.27;21.73;;;38.70;2201.60;;;;;;5031586;28;20383;-54
2021/01/16 02:10:11;;;;;;;30.90;19.17;;;38.70;2176.00;;;;;;5031330;28;20033;-55
2021/01/16 02:12:41;;;;;;;43.53;28.03;;;38.70;2201.60;;;;;;5031497;28;20033;-56
2021/01/16 02:15:07;;;;;;;35.10;20.67;;;38.80;2176.00;;;;;;5031520;28;20024;-55
2021/01/16 02:17:38;;;;;;;30.70;15.83;;;38.90;2201.60;;;;;;5031284;28;20029;-51
2021/01/16 02:20:21;;;;;;;21.87;13.33;;;38.90;2201.60;;;;;;5031211;28;20029;-55
2021/01/16 02:23:12;;;;;;;28.70;15.13;;;38.90;2201.60;;;;;;5030998;28;20025;-54
2021/01/16 02:25:58;;;;;;;24.10;14.03;;;38.90;2201.60;;;;;;5030950;28;20074;-55
2021/01/16 02:28:30;;;;;;;22.40;13.93;;;38.90;2201.60;;;;;;5031180;28;20064;-52
2021/01/16 02:30:56;;;;;;;26.93;15.07;;;38.80;2201.60;;;;;;5031129;28;20025;-53
2021/01/16 02:33:25;;;;;;;25.93;15.93;;;38.80;2176.00;;;;;;5030266;28;20021;-53
2021/01/16 02:35:54;;;;;;;32.73;17.80;;;38.90;2176.00;;;;;;5031727;28;20071;-54
2021/01/16 02:38:34;;;;;;;24.00;14.03;;;38.90;2176.00;;;;;;5031561;28;20049;-52
2021/01/16 02:41:10;;;;;;;25.93;14.70;;;38.90;2176.00;;;;;;5031615;28;20024;-53
2021/01/16 02:43:47;;;;;;;18.63;12.00;;;38.90;2176.00;;;;;;5031015;28;20026;-52
2021/01/16 02:46:25;;;;;;;26.30;16.73;;;38.90;2176.00;;;;;;5031203;28;20025;-51
2021/01/16 02:49:19;;;;;;;18.73;11.23;;;39.00;2201.60;;;;;;5030518;28;20136;-51
2021/01/16 02:52:17;;;;;;;23.73;15.57;;;39.10;2201.60;;;;;;4989080;28;20492;-52
2021/01/16 02:54:44;;;;;;;43.53;33.13;;;39.10;2201.60;;;;;;4989386;28;20026;-51
2021/01/16 02:57:10;;;;;;;40.43;31.40;;;39.20;2201.60;;;;;;4989232;28;20077;-55
2021/01/16 02:59:39;;;;;;;20.03;13.20;;;39.10;2201.60;;;;;;4988972;28;20069;-54
2021/01/16 03:02:07;;;;;;;21.30;11.77;;;39.20;2201.60;;;;;;4989108;28;20070;-54
2021/01/16 03:04:34;;;;;;;22.30;14.13;;;39.10;2201.60;;;;;;4989096;28;20084;-55
2021/01/16 03:07:03;;;;;;;41.57;23.97;;;39.10;2201.60;;;;;;4988972;28;20053;-54
2021/01/16 03:09:30;;;;;;;24.93;15.20;;;39.20;2201.60;;;;;;4988640;28;20496;-54
2021/01/16 03:11:57;;;;;;;27.10;15.13;;;39.20;2201.60;;;;;;4988868;28;20057;-52
2021/01/16 03:14:26;;;;;;;24.93;14.33;;;39.30;2201.60;;;;;;4989033;28;20026;-51
2021/01/16 03:17:11;;;;;;;18.77;11.60;;;39.10;2201.60;;;;;;4988894;28;20445;-55
2021/01/16 03:19:41;;;;;;;24.07;13.30;;;39.10;2201.60;;;;;;4988602;28;20034;-51
2021/01/16 03:22:19;;;;;;;24.30;13.50;;;39.00;2201.60;;;;;;4988614;28;20069;-52
2021/01/16 03:24:49;;;;;;;32.33;16.63;;;38.90;2176.00;;;;;;4988689;28;20023;-51
2021/01/16 03:27:15;;;;;;;24.20;13.60;;;38.80;2176.00;;;;;;4988664;28;20118;-55
2021/01/16 03:29:41;;;;;;;33.77;17.07;;;38.80;2176.00;;;;;;5026504;28;20453;-51
2021/01/16 03:32:08;;;;;;;29.90;14.57;;;38.70;2150.40;;;;;;5030171;28;20037;-52
2021/01/16 03:34:34;;;;;;;25.43;13.67;;;38.80;2176.00;;;;;;5030103;28;20026;-54
2021/01/16 03:37:00;;;;;;;28.83;14.77;;;38.60;2150.40;;;;;;5030085;28;20021;-52
2021/01/16 03:39:26;;;;;;;27.27;14.17;;;38.70;2176.00;;;;;;5030146;28;20032;-52
2021/01/16 03:41:52;;;;;;;22.00;12.83;;;38.70;2176.00;;;;;;5030308;28;20025;-52
2021/01/16 03:44:18;;;;;;;20.50;10.27;;;38.70;2176.00;;;;;;5029956;28;20452;-51
2021/01/16 03:46:43;;;;;;;15.63;9.93;;;38.70;2150.40;;;;;;5029968;28;20056;-51
2021/01/16 03:49:09;;;;;;;23.00;11.13;;;38.80;2176.00;;;;;;5029816;28;20542;-51
2021/01/16 03:51:35;;;;;;;25.13;13.90;;;38.70;2176.00;;;;;;5029703;28;20099;-52
2021/01/16 03:54:00;;;;;;;21.33;11.77;;;38.60;2176.00;;;;;;5030108;28;20026;-51
2021/01/16 03:56:26;;;;;;;19.13;10.63;;;38.60;2176.00;;;;;;5029952;28;20427;-55
2021/01/16 03:58:52;;;;;;;22.33;10.57;;;38.50;2150.40;;;;;;5030398;28;20555;-55
2021/01/16 04:01:17;;;;;;;27.37;14.87;;;38.40;2150.40;;;;;;5029913;28;20519;-55
2021/01/16 04:03:43;;;;;;;35.23;20.03;;;38.40;2150.40;;;;;;5030144;28;20544;-54
2021/01/16 04:06:17;;;;;;;28.00;15.67;;;13.70;2150.40;;;;;;5029686;28;20407;-53
2021/01/16 04:08:44;;;;;;;49.30;27.13;;;13.70;2150.40;;;;;;5029961;28;20685;-53
2021/01/16 04:11:10;;;;;;;27.07;14.70;;;13.70;2150.40;;;;;;5030003;28;20018;-52
2021/01/16 04:13:35;;;;;;;26.90;14.73;;;13.70;2150.40;;;;;;5029620;28;20021;-51
2021/01/16 04:16:01;;;;;;;27.17;13.83;;;13.50;2124.80;;;;;;5029823;28;20152;-52
2021/01/16 04:18:27;;;;;;;26.20;14.20;;;13.50;2124.80;;;;;;5029553;28;20025;-51
2021/01/16 04:20:53;;;;;;;25.53;16.20;;;13.40;2124.80;;;;;;5031637;28;20525;-54
2021/01/16 04:23:18;;;;;;;23.37;15.10;;;13.60;2176.00;;;;;;5033620;28;20422;-50
2021/01/16 04:25:45;;;;;;;24.37;13.33;;;13.60;2150.40;;;;;;5033614;28;20030;-54
2021/01/16 04:28:10;;;;;;;24.20;13.07;;;13.70;2150.40;;;;;;5033455;28;20035;-54
2021/01/16 04:30:36;;;;;;;25.73;12.67;;;13.70;2176.00;;;;;;5033320;28;20450;-54
2021/01/16 04:33:02;;;;;;;22.50;14.20;;;38.40;2201.60;;;;;;5033374;28;20029;-53
2021/01/16 04:35:28;;;;;;;23.20;14.37;;;38.50;2201.60;;;;;;5033405;28;20025;-54
2021/01/16 04:37:54;;;;;;;23.87;13.43;;;38.50;2201.60;;;;;;5033508;28;20104;-55
2021/01/16 04:40:19;;;;;;;22.47;13.63;;;38.50;2201.60;;;;;;5033513;28;20053;-54
2021/01/16 04:42:47;;;;;;;25.43;13.77;;;38.50;2201.60;;;;;;5033234;28;20080;-55
2021/01/16 04:45:16;;;;;;;25.47;13.90;;;38.50;2201.60;;;;;;5033228;28;20017;-52
2021/01/16 04:47:44;;;;;;;23.10;15.07;;;38.60;2201.60;;;;;;5032718;28;20166;-51
2021/01/16 04:50:18;;;;;;;26.97;15.07;;;38.70;2201.60;;;;;;5033103;28;20053;-50
2021/01/16 04:52:45;;;;;;;24.57;14.27;;;38.60;2201.60;;;;;;5033303;28;20384;-52
2021/01/16 04:55:15;;;;;;;20.93;12.93;;;38.60;2201.60;;;;;;5033067;28;20460;-52
2021/01/16 04:57:42;;;;;;;29.67;15.23;;;38.50;2201.60;;;;;;5033103;28;20026;-51
2021/01/16 05:00:10;;;;;;;22.90;13.37;;;38.50;2201.60;;;;;;5032876;28;20025;-52
2021/01/16 05:02:39;;;;;;;24.90;16.63;;;38.60;2201.60;;;;;;5033011;28;20032;-52
2021/01/16 05:05:07;;;;;;;24.73;14.77;;;38.60;2201.60;;;;;;5032524;28;20141;-53
2021/01/16 05:07:34;;;;;;;26.80;14.13;;;38.60;2201.60;;;;;;5032527;28;20129;-51
2021/01/16 05:10:01;;;;;;;28.47;15.97;;;38.60;2201.60;;;;;;5032786;28;20068;-51
2021/01/16 05:12:51;;;;;;;26.03;16.70;;;38.50;2201.60;;;;;;5032559;28;20037;-54
2021/01/16 05:15:22;;;;;;;30.70;14.33;;;38.60;2201.60;;;;;;5032683;28;20108;-54
2021/01/16 05:18:12;;;;;;;27.10;15.80;;;38.70;2201.60;;;;;;5032198;28;20501;-54
2021/01/16 05:20:44;;;;;;;24.20;13.50;;;38.80;2201.60;;;;;;5031815;28;20641;-54
2021/01/16 05:23:16;;;;;;;24.10;15.30;;;38.70;2201.60;;;;;;5032461;28;20036;-54
2021/01/16 05:25:53;;;;;;;24.95;14.52;;;38.50;2201.60;;;;;;5032377;28;20036;-54
2021/01/16 05:28:24;;;;;;;28.73;14.57;;;38.60;2201.60;;;;;;5032577;28;20043;-54
2021/01/16 05:31:00;;;;;;;24.53;15.60;;;13.70;2201.60;;;;;;5032661;28;20087;-54
2021/01/16 05:33:37;;;;;;;26.40;15.40;;;13.70;2201.60;;;;;;5032198;28;20484;-53
2021/01/16 05:36:06;;;;;;;31.67;14.67;;;13.60;2201.60;;;;;;5032095;28;20061;-55
2021/01/16 05:38:40;;;;;;;26.90;14.33;;;13.50;2201.60;;;;;;5032405;28;20028;-55
2021/01/16 05:41:10;;;;;;;27.63;15.17;;;13.60;2201.60;;;;;;5032116;28;20056;-54
2021/01/16 05:43:39;;;;;;;26.70;17.87;;;13.50;2201.60;;;;;;5032008;28;20037;-51
2021/01/16 05:46:10;;;;;;;28.47;15.30;;;13.50;2201.60;;;;;;5031803;28;20029;-53
2021/01/16 05:48:36;;;;;;;28.37;16.47;;;13.40;2201.60;;;;;;5031502;28;20057;-55
2021/01/16 05:51:03;;;;;;;28.70;17.20;;;13.50;2201.60;;;;;;5032135;28;20033;-51
2021/01/16 05:53:29;;;;;;;26.50;14.77;;;13.50;2201.60;;;;;;5031788;28;20051;-50
2021/01/16 05:55:56;;;;;;;28.77;15.47;;;13.50;2201.60;;;;;;5031731;28;20093;-55
2021/01/16 05:58:27;;;;;;;27.53;17.07;;;13.50;2201.60;;;;;;5031928;28;20040;-54
2021/01/16 06:00:57;;;;;;;26.60;15.33;;;13.60;2201.60;;;;;;5031885;28;20061;-55
2021/01/16 06:03:23;;;;;;;37.60;25.13;;;13.70;2201.60;;;;;;5031725;28;20061;-54
2021/01/16 06:05:51;;;;;;;30.67;18.57;;;13.60;2201.60;;;;;;5031481;28;20022;-53
2021/01/16 06:08:18;;;;;;;37.90;22.03;;;13.60;2201.60;;;;;;5031403;28;20044;-53
2021/01/16 06:10:50;;;;;;;32.67;22.70;;;13.50;2201.60;;;;;;5031887;28;20577;-53
2021/01/16 06:13:19;;;;;;;30.23;21.00;;;13.40;2201.60;;;;;;5031401;28;20052;-54
2021/01/16 06:15:50;;;;;;;74.47;43.50;;;13.40;2201.60;;;;;;5031246;28;20025;-53
2021/01/16 06:18:27;;;;;;;34.90;20.93;;;13.30;2201.60;;;;;;5031091;28;20098;-52
2021/01/16 06:20:55;;;;;;;36.60;20.53;;;13.30;2201.60;;;;;;5031356;28;20451;-51
2021/01/16 06:23:23;;;;;;;36.17;23.13;;;13.30;2201.60;;;;;;5031344;28;20537;-50
2021/01/16 06:25:57;;;;;;;34.37;18.07;;;13.30;2201.60;;;;;;5031175;28;20467;-51
2021/01/16 06:28:25;;;;;;;34.13;19.37;;;13.20;2201.60;;;;;;5031302;28;20494;-52
2021/01/16 06:30:56;;;;;;;36.43;20.37;;;13.20;2201.60;;;;;;5031509;28;20399;-53
2021/01/16 06:33:30;;;;;;;29.03;17.67;;;13.20;2201.60;;;;;;5031494;28;20053;-54
2021/01/16 06:36:03;;;;;;;30.40;18.17;;;13.20;2201.60;;;;;;5030803;28;20096;-51
2021/01/16 06:38:29;;;;;;;48.37;34.70;;;13.20;2201.60;;;;;;5030861;28;20434;-52
2021/01/16 06:41:09;;;;;;;28.50;17.03;;;13.20;2201.60;;;;;;5030753;28;20053;-55
2021/01/16 06:43:39;;;;;;;29.07;16.97;;;13.00;2201.60;;;;;;5030454;28;20380;-54
2021/01/16 06:46:13;;;;;;;30.73;17.80;;;0.00;2201.60;;;;;;5030985;28;20415;-54
2021/01/16 06:48:44;;;;;;;31.10;18.60;;;12.90;2201.60;;;;;;5030386;28;20153;-60
2021/01/16 06:51:12;;;;;;;40.60;19.43;;;0.10;2176.00;;;;;;5030751;28;20025;-53
2021/01/16 06:53:38;;;;;;;31.13;18.77;;;0.20;2150.40;;;;;;5030681;28;20463;-62
2021/01/16 06:56:09;;;;;;;31.07;21.80;;;0.30;2150.40;;;;;;5030705;28;20364;-53
2021/01/16 06:58:43;;;;;;;34.17;21.43;;;0.10;2124.80;;;;;;5030776;28;20025;-53
2021/01/16 07:01:11;;;;;;;29.93;18.03;;;0.00;2150.40;;;;;;5030658;28;20057;-53
2021/01/16 07:03:43;;;;;;;28.30;16.33;;;0.10;2124.80;;;;;;5030131;28;20036;-53
2021/01/16 07:06:10;;;;;;;37.53;20.27;;;0.10;2124.80;;;;;;5030200;28;20030;-54
2021/01/16 07:08:40;;;;;;;29.23;17.67;;;0.00;2099.20;;;;;;5030395;28;20055;-54
2021/01/16 07:11:07;;;;;;;40.17;19.97;;;0.10;2099.20;;;;;;5030405;28;20028;-53
2021/01/16 07:13:33;;;;;;;64.57;42.40;;;0.20;2073.60;;;;;;5030418;28;20049;-53
2021/01/16 07:16:02;;;;;;;61.20;37.37;;;0.20;2048.00;;;;;;5030361;28;20091;-53
2021/01/16 07:18:30;;;;;;;55.17;32.43;;;0.30;2048.00;;;;;;5030137;28;20033;-53
2021/01/16 07:21:00;;;;;;;61.15;32.67;;;0.30;2048.00;;;;;;5029949;28;20029;-54
2021/01/16 07:23:27;;;;;;;186.17;96.00;;;0.40;2022.40;;;;;;5030051;28;20061;-53
2021/01/16 07:25:54;;;;;;;128.77;77.63;;;0.40;2022.40;;;;;;5030438;28;20494;-53
2021/01/16 07:28:26;;;;;;;118.32;64.32;;;0.30;2022.40;;;;;;5021209;28;20065;-59
2021/01/16 07:30:52;;;;;;;48.17;26.57;;;0.30;2022.40;;;;;;5024763;28;20380;-62
2021/01/16 07:33:19;;;;;;;80.30;48.87;;;0.30;2022.40;;;;;;5030266;28;20041;-62
2021/01/16 07:35:51;;;;;;;54.35;30.55;;;0.40;2022.40;;;;;;5029861;28;20037;-55
2021/01/16 07:38:18;;;;;;;57.55;31.38;;;0.40;2022.40;;;;;;5030095;28;20022;-62
2021/01/16 07:40:46;;;;;;;49.30;27.65;;;0.50;1996.80;;;;;;5030265;28;20025;-62
2021/01/16 07:43:36;;;;;;;44.50;25.35;;;0.30;1996.80;;;;;;5062245;28;20573;-61
2021/01/16 07:46:05;;;;;;;26.08;17.02;;;0.10;1996.80;;;;;;5030140;28;20483;-60
2021/01/16 07:48:35;;;;;;;42.57;22.57;;;12.90;2022.40;;;;;;5029941;28;20458;-53
2021/01/16 07:51:01;;;;;;;37.40;20.77;;;0.10;1996.80;;;;;;5030325;28;20464;-53
2021/01/16 07:53:29;;;;;;;70.47;39.70;;;0.40;1971.20;;;;;;5030179;28;20025;-53
2021/01/16 07:56:09;;;;;;;58.00;34.97;;;0.90;1920.00;;;;;;5031962;28;20100;-54
2021/01/16 07:58:39;;;;;;;36.92;21.45;;;25.60;1920.00;;;;;;5034129;28;20075;-53
2021/01/16 08:01:30;;;;;;;22.90;12.82;;;25.60;1894.40;;;;;;5033750;28;20025;-53
2021/01/16 08:04:22;;;;;;;19.35;11.23;;;0.90;1894.40;;;;;;5033861;28;20029;-53
2021/01/16 08:07:01;;;;;;;30.15;18.38;;;0.60;1920.00;;;;;;5033410;28;20377;-53
2021/01/16 08:09:48;;;;;;;25.13;15.33;;;0.60;1920.00;;;;;;5033892;28;20040;-54
2021/01/16 08:12:14;;;;;;;29.92;19.33;;;0.70;1920.00;;;;;;5025759;28;20086;-53
2021/01/16 08:14:41;;;;;;;30.05;18.85;;;0.90;1894.40;;;;;;5025731;28;20075;-52
2021/01/16 08:17:18;;;;;;;38.50;22.17;;;25.70;1868.80;;;;;;5013736;28;20030;-54
2021/01/16 08:20:08;;;;;;;31.33;18.30;;;25.60;1894.40;;;;;;5026113;28;20034;-54
2021/01/16 08:22:36;;;;;;;25.33;14.85;;;0.80;1894.40;;;;;;5032535;28;20026;-52
2021/01/16 08:25:03;;;;;;;69.50;44.53;;;0.90;1868.80;;;;;;5033232;28;20112;-51
2021/01/16 08:27:34;;;;;;;96.13;50.35;;;26.00;1843.20;;;;;;5033306;28;20029;-53
2021/01/16 08:30:13;;;;;;;61.67;32.65;;;26.00;1817.60;;;;;;5033098;28;20025;-53
2021/01/16 08:33:01;;;;;;;169.80;94.13;;;26.10;1792.00;;;;;;5033369;28;20119;-54
2021/01/16 08:35:30;;;;;;;170.05;90.47;;;26.20;1766.40;;;;;;5032806;28;20033;-54
2021/01/16 08:38:17;;;;;;;75.18;42.38;;;26.00;1792.00;;;;;;5033074;28;20080;-54
2021/01/16 08:41:03;;;;;;;56.05;31.60;;;26.30;1766.40;;;;;;5033017;28;20018;-53
2021/01/16 08:43:49;;;;;;;123.45;78.30;;;51.20;1766.40;;;;;;5032738;28;20029;-52
2021/01/16 08:46:31;;;;;;;64.22;43.92;;;26.20;1740.80;;;;;;5029980;28;20026;-58
2021/01/16 08:49:03;;;;;;;52.17;33.50;;;26.10;1766.40;;;;;;5031425;28;20049;-53
2021/01/16 08:51:42;;;;;;;29.33;16.35;;;26.10;1766.40;;;;;;5031339;28;20091;-53
2021/01/16 08:54:15;;;;;;;49.65;33.80;;;26.20;1766.40;;;;;;5031797;28;20195;-61
2021/01/16 08:56:44;;;;;;;48.33;26.52;;;26.00;1792.00;;;;;;5031868;28;20547;-58
2021/01/16 08:59:20;;;;;;;56.83;37.08;;;26.00;1792.00;;;;;;5031784;28;20031;-61
2021/01/16 09:01:49;;;;;;;55.05;32.60;;;26.10;1766.40;;;;;;5028658;28;20025;-55
2021/01/16 09:04:29;;;;;;;41.90;25.58;;;26.20;1766.40;;;;;;5012069;28;20534;-57
2021/01/16 09:07:28;;;;;;;39.70;22.55;;;26.20;1740.80;;;;;;5010975;28;20503;-54
2021/01/16 09:10:02;;;;;;;37.85;22.60;;;26.40;1740.80;;;;;;5011896;28;20105;-60
2021/01/16 09:12:38;;;;;;;51.80;24.90;;;26.50;1740.80;;;;;;5011699;28;20018;-59
2021/01/16 09:15:27;;;;;;;50.53;25.13;;;51.30;1715.20;;;;;;5012051;28;20113;-53
2021/01/16 09:18:02;;;;;;;38.65;20.77;;;51.60;1689.60;;;;;;5012070;28;20371;-54
2021/01/16 09:20:28;;;;;;;23.20;13.35;;;51.40;1689.60;;;;;;5014924;28;20602;-53
2021/01/16 09:22:54;;;;;;;28.65;16.40;;;51.30;1715.20;;;;;;5031319;28;20033;-53
2021/01/16 09:25:22;;;;;;;25.00;16.15;;;51.40;1715.20;;;;;;5031241;28;20380;-53
2021/01/16 09:27:49;;;;;;;35.40;17.63;;;51.40;1689.60;;;;;;5031039;28;20041;-53
2021/01/16 09:30:29;;;;;;;23.88;14.30;;;51.50;1715.20;;;;;;5031147;28;20025;-54
2021/01/16 09:32:54;;;;;;;36.00;21.45;;;51.60;1715.20;;;;;;5031237;28;20053;-53
2021/01/16 09:35:50;;;;;;;30.75;18.73;;;51.80;1689.60;;;;;;5031373;28;20064;-53
2021/01/16 09:38:20;;;;;;;25.55;15.70;;;51.70;1715.20;;;;;;5012227;28;20397;-53
2021/01/16 09:40:47;;;;;;;27.83;17.90;;;51.70;1715.20;;;;;;5028643;28;20156;-54
2021/01/16 09:43:26;;;;;;;28.13;15.65;;;51.60;1740.80;;;;;;5028913;28;20486;-53
2021/01/16 09:45:53;;;;;;;22.08;14.95;;;51.50;1740.80;;;;;;5028939;28;20029;-54
2021/01/16 09:48:31;;;;;;;19.65;12.52;;;51.50;1715.20;;;;;;5006554;28;641803;-54
2021/01/16 09:50:58;;;;;;;87.22;51.17;;;51.70;1715.20;;;;;;5029740;28;20029;-54
2021/01/16 09:53:25;;;;;;;90.35;52.85;;;76.80;1664.00;;;;;;5029949;28;20056;-53
2021/01/16 09:55:54;;;;;;;440.15;246.80;;;77.30;1587.20;;;;;;5029931;28;20116;-53
2021/01/16 09:58:31;;;;;;;255.15;130.38;;;76.90;1587.20;;;;;;5029596;28;20483;-53
2021/01/16 10:01:16;;;;;;;62.92;36.83;;;52.10;1638.40;;;;;;5029240;28;20116;-61
2021/01/16 10:03:43;;;;;;;357.27;195.27;;;52.10;1638.40;;;;;;5029522;28;20064;-60
2021/01/16 10:06:09;;;;;;;120.57;68.80;;;52.10;1638.40;;;;;;5012418;28;20053;-59
2021/01/16 10:08:40;;;;;;;62.15;40.25;;;76.80;1638.40;;;;;;5029134;28;20045;-55
2021/01/16 10:11:06;;;;;;;102.40;79.03;;;77.10;1612.80;;;;;;5029266;28;20030;-60
2021/01/16 10:13:36;;;;;;;73.32;43.30;;;76.90;1638.40;;;;;;5029404;28;20029;-61
2021/01/16 10:16:07;;;;;;;86.00;57.05;;;76.80;1638.40;;;;;;5031405;28;20029;-54
2021/01/16 10:18:35;;;;;;;55.35;29.45;;;76.80;1638.40;;;;;;5030502;28;20036;-52
2021/01/16 10:21:10;;;;;;;75.95;45.28;;;76.80;1638.40;;;;;;5031426;28;20060;-55
2021/01/16 10:23:43;;;;;;;47.55;29.38;;;76.90;1612.80;;;;;;5030842;28;20116;-54
2021/01/16 10:26:18;;;;;;;44.95;23.13;;;76.80;1638.40;;;;;;5031073;28;20100;-54
2021/01/16 10:28:49;;;;;;;41.53;19.60;;;77.00;1638.40;;;;;;5031242;28;20048;-54
2021/01/16 10:31:23;;;;;;;47.72;24.52;;;77.00;1612.80;;;;;;5031063;28;20032;-53
2021/01/16 10:33:48;;;;;;;52.45;27.35;;;76.90;1612.80;;;;;;5031137;28;20029;-53
2021/01/16 10:36:17;;;;;;;83.03;40.08;;;76.90;1638.40;;;;;;5031104;28;20468;-53
2021/01/16 10:38:53;;;;;;;31.25;18.40;;;76.90;1638.40;;;;;;5031269;28;20026;-53
2021/01/16 10:41:35;;;;;;;44.70;23.13;;;76.80;1638.40;;;;;;5030989;28;20060;-53
2021/01/16 10:44:22;;;;;;;46.80;23.52;;;52.10;1638.40;;;;;;5031133;28;20024;-53
2021/01/16 10:46:53;;;;;;;50.67;23.80;;;76.80;1664.00;;;;;;5030690;28;20087;-61
2021/01/16 10:49:26;;;;;;;43.25;23.58;;;76.90;1664.00;;;;;;5030667;28;20057;-62
2021/01/16 10:52:01;;;;;;;31.02;17.75;;;76.90;1664.00;;;;;;5031058;28;20024;-60
2021/01/16 10:54:28;;;;;;;33.58;16.10;;;76.80;1689.60;;;;;;5030839;28;20030;-63
2021/01/16 10:56:59;;;;;;;55.22;28.67;;;77.10;1638.40;;;;;;5030881;28;20384;-55
2021/01/16 10:59:37;;;;;;;43.55;26.38;;;77.20;1664.00;;;;;;5030600;28;20387;-59
2021/01/16 11:02:13;;;;;;;32.58;18.45;;;77.50;1612.80;;;;;;5030737;28;20021;-59
2021/01/16 11:04:48;;;;;;;38.90;23.77;;;77.60;1587.20;;;;;;5030561;28;20036;-54
2021/01/16 11:07:28;;;;;;;47.28;29.27;;;77.70;1587.20;;;;;;5030359;28;20045;-59
2021/01/16 11:10:07;;;;;;;26.08;16.45;;;77.60;1561.60;;;;;;5030784;28;20033;-51
2021/01/16 11:12:33;;;;;;;38.20;21.40;;;77.60;1561.60;;;;;;5030600;28;20028;-51
2021/01/16 11:15:00;;;;;;;41.33;27.08;;;77.40;1587.20;;;;;;5030294;28;20106;-52
2021/01/16 11:17:45;;;;;;;28.05;17.08;;;77.50;1587.20;;;;;;5030109;28;20025;-52
2021/01/16 11:20:18;;;;;;;27.02;16.00;;;77.20;1612.80;;;;;;5030373;28;20468;-51
2021/01/16 11:22:48;;;;;;;;;;;77.00;1638.40;;;;;;5030828;28;20167;-53
2021/01/16 11:25:39;;;;;;;25.00;13.95;;;52.10;1638.40;;;;;;5030262;28;19909;-52
2021/01/16 11:28:06;;;;;;;24.13;14.80;;;51.80;1638.40;;;;;;5030109;28;20377;-52
2021/01/16 11:30:42;;;;;;;24.15;14.43;;;51.70;1638.40;;;;;;5030151;28;20018;-53
2021/01/16 11:33:24;;;;;;;43.80;28.98;;;51.70;1638.40;;;;;;5029899;28;20472;-53
2021/01/16 11:36:03;;;;;;;59.10;32.92;;;51.60;1612.80;;;;;;5030304;28;20156;-54
2021/01/16 11:38:40;;;;;;;75.30;40.15;;;76.80;1612.80;;;;;;5029740;28;20479;-53
2021/01/16 11:41:07;;;;;;;34.65;18.08;;;76.90;1587.20;;;;;;5029967;28;20040;-52
2021/01/16 11:43:33;;;;;;;53.28;25.05;;;76.90;1561.60;;;;;;5030015;28;20048;-53
2021/01/16 11:46:17;;;;;;;32.13;16.95;;;77.20;1536.00;;;;;;5029804;28;20483;-53
2021/01/16 11:48:42;;;;;;;18.58;12.25;;;77.20;1536.00;;;;;;5029719;28;20480;-53
2021/01/16 11:51:16;;;;;;;37.08;20.45;;;77.00;1587.20;;;;;;5029860;28;20030;-53
2021/01/16 11:53:50;;;;;;;42.97;24.80;;;77.10;1561.60;;;;;;5029982;28;20032;-52
2021/01/16 11:56:20;;;;;;;36.88;19.88;;;77.10;1510.40;;;;;;5029904;28;20033;-55
2021/01/16 11:58:47;;;;;;;47.00;23.67;;;77.20;1510.40;;;;;;5029761;28;20480;-53
2021/01/16 12:01:16;;;;;;;25.88;12.77;;;77.20;1484.80;;;;;;5030072;28;20099;-59
2021/01/16 12:03:43;;;;;;;50.72;34.53;;;77.10;1510.40;;;;;;5029949;28;20021;-58
2021/01/16 12:06:18;;;;;;;23.52;12.95;;;76.90;1510.40;;;;;;5029822;28;20028;-57
2021/01/16 12:08:46;;;;;;;21.75;11.52;;;76.80;1510.40;;;;;;5029629;28;20088;-58
2021/01/16 12:11:13;;;;;;;27.15;15.52;;;76.80;1484.80;;;;;;5029904;28;20456;-62
2021/01/16 12:13:40;;;;;;;20.00;9.23;;;76.80;1484.80;;;;;;5029815;28;20034;-56
2021/01/16 12:16:11;;;;;;;24.42;12.07;;;52.00;1484.80;;;;;;5028220;28;20040;-60
2021/01/16 12:18:38;;;;;;;23.80;12.23;;;52.00;1510.40;;;;;;5029545;28;20037;-52
2021/01/16 12:21:04;;;;;;;20.05;11.93;;;51.80;1510.40;;;;;;5029711;28;20372;-57
2021/01/16 12:23:44;;;;;;;33.15;18.25;;;51.80;1510.40;;;;;;5029328;28;20022;-52
2021/01/16 12:26:15;;;;;;;31.17;17.05;;;51.90;1510.40;;;;;;5029312;28;20095;-54